Hurley, Mississippi
Current Conditions -  °F | °C
As of 5:53 PM on Friday 24 Oct 2014 (Local Time) from KPQL Reporting Station
Clear Clear  
Wind Chill: 71°   Ceiling: Unl
Heat Index: 71°   Visibility: 10mi
Dew Point: 47°   Wind: 5mph
Humidity: 42%   Direction: 330°NNW
Pressure: 30.03"   Gusts: NA
Location:  30.66°N, 88.49°W
Report Text: KPQL 242253Z 33004KT 10SM CLR 22/08 A3003 RMK AO2 SLP169 T02170083
Loading
Personal Weather Stations






























Interactive Weather Map
Tropical Storm Tracking
New forecast layout! Learn more

10-Day Weather Forecast

Advertisements
Track Severe Weather on mobile